sensor_id;sensor_type;location;lat;lon;timestamp;pressure;altitude;pressure_sealevel;temperature;humidity
23619;BME280;18207;32.078;34.818;2022-09-09T00:01:20;100578.03;;;33.50;45.11
23619;BME280;18207;32.078;34.818;2022-09-09T00:04:00;100575.59;;;33.49;44.75
23619;BME280;18207;32.078;34.818;2022-09-09T00:06:37;100573.19;;;33.47;44.81
23619;BME280;18207;32.078;34.818;2022-09-09T00:09:16;100574.41;;;33.46;44.78
23619;BME280;18207;32.078;34.818;2022-09-09T00:11:52;100570.78;;;33.46;45.12
23619;BME280;18207;32.078;34.818;2022-09-09T00:14:45;100570.84;;;33.42;44.69
23619;BME280;18207;32.078;34.818;2022-09-09T00:17:31;100566.38;;;33.41;45.05
23619;BME280;18207;32.078;34.818;2022-09-09T00:20:14;100573.28;;;33.40;45.17
23619;BME280;18207;32.078;34.818;2022-09-09T00:22:54;100570.44;;;33.40;45.15
23619;BME280;18207;32.078;34.818;2022-09-09T00:25:39;100563.13;;;33.39;44.82
23619;BME280;18207;32.078;34.818;2022-09-09T00:28:20;100562.31;;;33.39;44.89
23619;BME280;18207;32.078;34.818;2022-09-09T00:30:51;100572.91;;;33.38;45.50
23619;BME280;18207;32.078;34.818;2022-09-09T00:33:25;100565.97;;;33.39;45.17
23619;BME280;18207;32.078;34.818;2022-09-09T00:35:59;100566.78;;;33.40;45.13
23619;BME280;18207;32.078;34.818;2022-09-09T00:38:36;100569.63;;;33.40;45.19
23619;BME280;18207;32.078;34.818;2022-09-09T00:41:20;100575.75;;;33.38;45.11
23619;BME280;18207;32.078;34.818;2022-09-09T00:44:01;100570.06;;;33.38;45.28
23619;BME280;18207;32.078;34.818;2022-09-09T00:47:01;100573.34;;;33.37;45.11
23619;BME280;18207;32.078;34.818;2022-09-09T00:49:57;100572.97;;;33.35;44.96
23619;BME280;18207;32.078;34.818;2022-09-09T00:52:42;100571.34;;;33.34;44.89
23619;BME280;18207;32.078;34.818;2022-09-09T00:55:26;100570.16;;;33.31;45.12
23619;BME280;18207;32.078;34.818;2022-09-09T00:58:07;100571.41;;;33.30;44.88
23619;BME280;18207;32.078;34.818;2022-09-09T01:00:44;100575.03;;;33.31;44.84
23619;BME280;18207;32.078;34.818;2022-09-09T01:03:32;100575.47;;;33.29;45.13
23619;BME280;18207;32.078;34.818;2022-09-09T01:06:14;100572.25;;;33.27;44.70
23619;BME280;18207;32.078;34.818;2022-09-09T01:09:07;100576.31;;;33.26;44.88
23619;BME280;18207;32.078;34.818;2022-09-09T01:11:55;100573.06;;;33.24;45.27
23619;BME280;18207;32.078;34.818;2022-09-09T01:14:45;100581.69;;;33.21;45.07
23619;BME280;18207;32.078;34.818;2022-09-09T01:17:25;100573.56;;;33.19;44.90
23619;BME280;18207;32.078;34.818;2022-09-09T01:20:08;100574.78;;;33.18;45.33
23619;BME280;18207;32.078;34.818;2022-09-09T01:22:56;100570.72;;;33.19;45.26
23619;BME280;18207;32.078;34.818;2022-09-09T01:28:40;100580.53;;;33.15;45.12
23619;BME280;18207;32.078;34.818;2022-09-09T01:31:19;100578.94;;;33.14;45.03
23619;BME280;18207;32.078;34.818;2022-09-09T01:33:50;100577.31;;;33.13;45.44
23619;BME280;18207;32.078;34.818;2022-09-09T01:36:29;100584.63;;;33.14;45.13
23619;BME280;18207;32.078;34.818;2022-09-09T01:39:05;100584.22;;;33.12;44.97
23619;BME280;18207;32.078;34.818;2022-09-09T01:41:37;100579.75;;;33.11;45.36
23619;BME280;18207;32.078;34.818;2022-09-09T01:44:11;100587.50;;;33.11;45.22
23619;BME280;18207;32.078;34.818;2022-09-09T01:46:42;100586.31;;;33.08;44.87
23619;BME280;18207;32.078;34.818;2022-09-09T01:49:12;100592.00;;;33.08;44.97
23619;BME280;18207;32.078;34.818;2022-09-09T01:51:46;100579.78;;;33.08;45.13
23619;BME280;18207;32.078;34.818;2022-09-09T01:54:21;100587.53;;;33.07;45.46
23619;BME280;18207;32.078;34.818;2022-09-09T01:57:06;100589.94;;;33.09;44.93
23619;BME280;18207;32.078;34.818;2022-09-09T02:00:10;100592.84;;;33.05;45.05
23619;BME280;18207;32.078;34.818;2022-09-09T02:02:55;100583.91;;;33.03;45.10
23619;BME280;18207;32.078;34.818;2022-09-09T02:05:37;100584.34;;;33.02;44.83
23619;BME280;18207;32.078;34.818;2022-09-09T02:08:14;100585.13;;;33.02;45.65
23619;BME280;18207;32.078;34.818;2022-09-09T02:10:55;100587.97;;;33.02;44.83
23619;BME280;18207;32.078;34.818;2022-09-09T02:13:26;100588.84;;;32.99;45.59
23619;BME280;18207;32.078;34.818;2022-09-09T02:16:07;100588.03;;;32.99;45.27
23619;BME280;18207;32.078;34.818;2022-09-09T02:18:45;100594.16;;;32.97;44.91
23619;BME280;18207;32.078;34.818;2022-09-09T02:21:18;100591.72;;;32.96;45.43
23619;BME280;18207;32.078;34.818;2022-09-09T02:23:52;100593.75;;;32.95;45.04
23619;BME280;18207;32.078;34.818;2022-09-09T02:26:26;100594.19;;;32.94;45.36
23619;BME280;18207;32.078;34.818;2022-09-09T02:29:03;100590.53;;;32.93;45.55
23619;BME280;18207;32.078;34.818;2022-09-09T02:31:38;100597.44;;;32.92;45.41
23619;BME280;18207;32.078;34.818;2022-09-09T02:34:11;100600.72;;;32.91;45.52
23619;BME280;18207;32.078;34.818;2022-09-09T02:36:46;100598.31;;;32.89;44.82
23619;BME280;18207;32.078;34.818;2022-09-09T02:39:18;100602.81;;;32.87;45.32
23619;BME280;18207;32.078;34.818;2022-09-09T02:41:50;100596.31;;;32.86;45.20
23619;BME280;18207;32.078;34.818;2022-09-09T02:44:20;100602.41;;;32.85;45.49
23619;BME280;18207;32.078;34.818;2022-09-09T02:47:20;100604.47;;;32.84;45.45
23619;BME280;18207;32.078;34.818;2022-09-09T02:50:12;100604.06;;;32.82;45.33
23619;BME280;18207;32.078;34.818;2022-09-09T02:53:02;100595.97;;;32.81;45.05
23619;BME280;18207;32.078;34.818;2022-09-09T02:55:41;100600.81;;;32.80;45.06
23619;BME280;18207;32.078;34.818;2022-09-09T02:58:16;100611.00;;;32.81;45.31
23619;BME280;18207;32.078;34.818;2022-09-09T03:00:50;100603.69;;;32.80;45.20
23619;BME280;18207;32.078;34.818;2022-09-09T03:03:22;100610.19;;;32.81;45.32
23619;BME280;18207;32.078;34.818;2022-09-09T03:05:53;100611.81;;;32.82;45.10
23619;BME280;18207;32.078;34.818;2022-09-09T03:08:23;100608.16;;;32.81;45.14
23619;BME280;18207;32.078;34.818;2022-09-09T03:10:58;100612.63;;;32.82;45.59
23619;BME280;18207;32.078;34.818;2022-09-09T03:13:29;100619.53;;;32.81;45.60
23619;BME280;18207;32.078;34.818;2022-09-09T03:16:00;100612.66;;;32.79;45.37
23619;BME280;18207;32.078;34.818;2022-09-09T03:18:33;100615.94;;;32.77;45.39
23619;BME280;18207;32.078;34.818;2022-09-09T03:21:05;100621.63;;;32.77;45.24
23619;BME280;18207;32.078;34.818;2022-09-09T03:23:36;100630.16;;;32.77;45.01
23619;BME280;18207;32.078;34.818;2022-09-09T03:26:19;100627.72;;;32.76;45.09
23619;BME280;18207;32.078;34.818;2022-09-09T03:28:50;100619.63;;;32.74;45.17
23619;BME280;18207;32.078;34.818;2022-09-09T03:31:21;100626.53;;;32.73;45.45
23619;BME280;18207;32.078;34.818;2022-09-09T03:33:56;100621.28;;;32.72;45.20
23619;BME280;18207;32.078;34.818;2022-09-09T03:36:27;100625.34;;;32.71;45.53
23619;BME280;18207;32.078;34.818;2022-09-09T03:38:58;100639.19;;;32.69;45.43
23619;BME280;18207;32.078;34.818;2022-09-09T03:41:31;100637.56;;;32.68;45.22
23619;BME280;18207;32.078;34.818;2022-09-09T03:44:03;100638.78;;;32.67;45.51
23619;BME280;18207;32.078;34.818;2022-09-09T03:46:33;100638.78;;;32.67;45.21
23619;BME280;18207;32.078;34.818;2022-09-09T03:49:06;100648.16;;;32.67;45.50
23619;BME280;18207;32.078;34.818;2022-09-09T03:51:38;100641.63;;;32.67;45.19
23619;BME280;18207;32.078;34.818;2022-09-09T03:54:09;100648.56;;;32.66;45.19
23619;BME280;18207;32.078;34.818;2022-09-09T03:56:39;100642.88;;;32.66;45.59
23619;BME280;18207;32.078;34.818;2022-09-09T03:59:10;100640.88;;;32.63;45.00
23619;BME280;18207;32.078;34.818;2022-09-09T04:01:42;100651.06;;;32.60;45.04
23619;BME280;18207;32.078;34.818;2022-09-09T04:04:15;100648.22;;;32.57;45.52
23619;BME280;18207;32.078;34.818;2022-09-09T04:06:46;100655.16;;;32.52;44.92
23619;BME280;18207;32.078;34.818;2022-09-09T04:09:16;100652.34;;;32.49;45.72
23619;BME280;18207;32.078;34.818;2022-09-09T04:11:47;100647.91;;;32.44;45.66
23619;BME280;18207;32.078;34.818;2022-09-09T04:14:17;100656.06;;;32.42;45.42
23619;BME280;18207;32.078;34.818;2022-09-09T04:16:48;100660.13;;;32.41;45.37
23619;BME280;18207;32.078;34.818;2022-09-09T04:19:20;100654.03;;;32.43;45.59
23619;BME280;18207;32.078;34.818;2022-09-09T04:21:51;100665.81;;;32.45;45.45
23619;BME280;18207;32.078;34.818;2022-09-09T04:24:21;100658.47;;;32.47;45.49
23619;BME280;18207;32.078;34.818;2022-09-09T04:26:55;100668.19;;;32.50;45.62
23619;BME280;18207;32.078;34.818;2022-09-09T04:29:26;100660.44;;;32.54;45.61
23619;BME280;18207;32.078;34.818;2022-09-09T04:31:56;100664.06;;;32.58;45.76
23619;BME280;18207;32.078;34.818;2022-09-09T04:34:29;100669.34;;;32.63;45.84
23619;BME280;18207;32.078;34.818;2022-09-09T04:37:00;100666.47;;;32.66;45.74
23619;BME280;18207;32.078;34.818;2022-09-09T04:39:30;100674.97;;;32.70;45.89
23619;BME280;18207;32.078;34.818;2022-09-09T04:42:00;100672.91;;;32.74;46.03
23619;BME280;18207;32.078;34.818;2022-09-09T04:44:32;100674.50;;;32.78;45.84
23619;BME280;18207;32.078;34.818;2022-09-09T04:47:04;100672.41;;;32.82;46.02
23619;BME280;18207;32.078;34.818;2022-09-09T04:49:37;100669.53;;;32.86;46.17
23619;BME280;18207;32.078;34.818;2022-09-09T04:52:09;100670.31;;;32.90;45.56
23619;BME280;18207;32.078;34.818;2022-09-09T04:54:39;100670.66;;;32.95;45.92
23619;BME280;18207;32.078;34.818;2022-09-09T04:57:11;100667.78;;;32.99;45.36
23619;BME280;18207;32.078;34.818;2022-09-09T04:59:45;100674.25;;;33.03;46.06
23619;BME280;18207;32.078;34.818;2022-09-09T05:02:17;100670.19;;;33.04;45.67
23619;BME280;18207;32.078;34.818;2022-09-09T05:04:49;100681.09;;;33.09;46.00
23619;BME280;18207;32.078;34.818;2022-09-09T05:07:19;100679.88;;;33.13;45.57
23619;BME280;18207;32.078;34.818;2022-09-09T05:09:49;100674.13;;;33.16;46.24
23619;BME280;18207;32.078;34.818;2022-09-09T05:12:20;100681.41;;;33.21;46.15
23619;BME280;18207;32.078;34.818;2022-09-09T05:14:52;100672.41;;;33.26;45.80
23619;BME280;18207;32.078;34.818;2022-09-09T05:17:23;100688.63;;;33.32;45.84
23619;BME280;18207;32.078;34.818;2022-09-09T05:19:55;100678.78;;;33.37;45.97
23619;BME280;18207;32.078;34.818;2022-09-09T05:22:25;100684.03;;;33.42;45.95
23619;BME280;18207;32.078;34.818;2022-09-09T05:24:56;100676.25;;;33.46;46.22
23619;BME280;18207;32.078;34.818;2022-09-09T05:27:27;100682.69;;;33.50;46.28
23619;BME280;18207;32.078;34.818;2022-09-09T05:29:59;100680.63;;;33.54;45.64
23619;BME280;18207;32.078;34.818;2022-09-09T05:32:30;100683.44;;;33.57;45.83
23619;BME280;18207;32.078;34.818;2022-09-09T05:35:05;100679.31;;;33.62;45.93
23619;BME280;18207;32.078;34.818;2022-09-09T05:37:35;100676.81;;;33.67;46.00
23619;BME280;18207;32.078;34.818;2022-09-09T05:40:08;100683.66;;;33.73;45.91
23619;BME280;18207;32.078;34.818;2022-09-09T05:42:39;100685.59;;;33.80;46.17
23619;BME280;18207;32.078;34.818;2022-09-09T05:45:12;100687.56;;;33.86;46.17
23619;BME280;18207;32.078;34.818;2022-09-09T05:47:42;100687.44;;;33.93;46.16
23619;BME280;18207;32.078;34.818;2022-09-09T05:50:14;100688.59;;;33.99;46.14
23619;BME280;18207;32.078;34.818;2022-09-09T05:52:45;100682.41;;;34.04;45.81
23619;BME280;18207;32.078;34.818;2022-09-09T05:55:17;100683.59;;;34.10;45.81
23619;BME280;18207;32.078;34.818;2022-09-09T05:57:49;100677.78;;;34.17;45.43
23619;BME280;18207;32.078;34.818;2022-09-09T06:00:20;100683.81;;;34.22;46.23
23619;BME280;18207;32.078;34.818;2022-09-09T06:02:52;100689.47;;;34.26;45.66
23619;BME280;18207;32.078;34.818;2022-09-09T06:05:26;100692.25;;;34.29;46.37
23619;BME280;18207;32.078;34.818;2022-09-09T06:07:56;100687.31;;;34.33;46.14
23619;BME280;18207;32.078;34.818;2022-09-09T06:10:28;100688.06;;;34.37;45.92
23619;BME280;18207;32.078;34.818;2022-09-09T06:12:59;100686.34;;;34.43;46.19
23619;BME280;18207;32.078;34.818;2022-09-09T06:15:30;100687.53;;;34.46;46.08
23619;BME280;18207;32.078;34.818;2022-09-09T06:18:03;100688.75;;;34.45;45.84
23619;BME280;18207;32.078;34.818;2022-09-09T06:20:36;100690.75;;;34.48;45.85
23619;BME280;18207;32.078;34.818;2022-09-09T06:23:07;100680.50;;;34.50;45.81
23619;BME280;18207;32.078;34.818;2022-09-09T06:25:37;100685.38;;;34.53;46.11
23619;BME280;18207;32.078;34.818;2022-09-09T06:28:08;100680.84;;;34.56;45.99
23619;BME280;18207;32.078;34.818;2022-09-09T06:30:39;100681.25;;;34.58;45.83
23619;BME280;18207;32.078;34.818;2022-09-09T06:33:10;100681.19;;;34.61;45.86
23619;BME280;18207;32.078;34.818;2022-09-09T06:35:51;100682.28;;;34.67;45.47
23619;BME280;18207;32.078;34.818;2022-09-09T06:38:22;100690.00;;;34.70;45.95
23619;BME280;18207;32.078;34.818;2022-09-09T06:40:54;100690.31;;;34.76;45.58
23619;BME280;18207;32.078;34.818;2022-09-09T06:43:27;100683.69;;;34.82;45.48
23619;BME280;18207;32.078;34.818;2022-09-09T06:45:59;100687.63;;;34.88;45.30
23619;BME280;18207;32.078;34.818;2022-09-09T06:48:30;100685.47;;;34.95;45.82
23619;BME280;18207;32.078;34.818;2022-09-09T06:51:06;100689.44;;;35.01;45.82
23619;BME280;18207;32.078;34.818;2022-09-09T06:53:39;100695.06;;;35.08;45.22
23619;BME280;18207;32.078;34.818;2022-09-09T06:56:22;100688.03;;;35.13;45.29
23619;BME280;18207;32.078;34.818;2022-09-09T06:58:56;100691.69;;;35.13;45.31
23619;BME280;18207;32.078;34.818;2022-09-09T07:01:29;100694.09;;;35.15;45.32
23619;BME280;18207;32.078;34.818;2022-09-09T07:04:02;100692.81;;;35.19;45.97
23619;BME280;18207;32.078;34.818;2022-09-09T07:06:41;100688.19;;;35.25;45.56
23619;BME280;18207;32.078;34.818;2022-09-09T07:09:14;100688.06;;;35.32;45.44
23619;BME280;18207;32.078;34.818;2022-09-09T07:11:48;100693.63;;;35.39;45.45
23619;BME280;18207;32.078;34.818;2022-09-09T07:14:20;100701.25;;;35.46;45.59
23619;BME280;18207;32.078;34.818;2022-09-09T07:16:51;100692.59;;;35.49;45.26
23619;BME280;18207;32.078;34.818;2022-09-09T07:19:26;100690.91;;;35.55;45.59
23619;BME280;18207;32.078;34.818;2022-09-09T07:21:59;100690.38;;;35.60;45.28
23619;BME280;18207;32.078;34.818;2022-09-09T07:24:30;100684.53;;;35.67;45.21
23619;BME280;18207;32.078;34.818;2022-09-09T07:27:01;100683.63;;;35.70;45.41
23619;BME280;18207;32.078;34.818;2022-09-09T07:29:31;100683.53;;;35.74;45.53
23619;BME280;18207;32.078;34.818;2022-09-09T07:32:02;100673.66;;;35.78;45.01
23619;BME280;18207;32.078;34.818;2022-09-09T07:34:33;100676.88;;;35.80;45.72
23619;BME280;18207;32.078;34.818;2022-09-09T07:37:06;100685.75;;;35.85;45.27
23619;BME280;18207;32.078;34.818;2022-09-09T07:39:39;100677.06;;;35.89;45.17
23619;BME280;18207;32.078;34.818;2022-09-09T07:42:10;100671.22;;;35.96;45.36
23619;BME280;18207;32.078;34.818;2022-09-09T07:44:41;100670.72;;;36.01;45.40
23619;BME280;18207;32.078;34.818;2022-09-09T07:47:12;100661.63;;;36.06;45.08
23619;BME280;18207;32.078;34.818;2022-09-09T07:49:42;100661.94;;;36.08;45.04
23619;BME280;18207;32.078;34.818;2022-09-09T07:52:16;100662.25;;;36.13;45.02
23619;BME280;18207;32.078;34.818;2022-09-09T07:54:48;100659.31;;;36.17;45.25
23619;BME280;18207;32.078;34.818;2022-09-09T07:57:20;100648.56;;;36.21;45.02
23619;BME280;18207;32.078;34.818;2022-09-09T07:59:51;100648.84;;;36.26;45.27
23619;BME280;18207;32.078;34.818;2022-09-09T08:02:22;100652.44;;;36.30;44.90
23619;BME280;18207;32.078;34.818;2022-09-09T08:04:53;100653.97;;;36.35;44.63
23619;BME280;18207;32.078;34.818;2022-09-09T08:07:26;100646.06;;;36.39;44.70
23619;BME280;18207;32.078;34.818;2022-09-09T08:09:56;100648.06;;;36.42;44.89
23619;BME280;18207;32.078;34.818;2022-09-09T08:12:26;100656.22;;;36.43;45.29
23619;BME280;18207;32.078;34.818;2022-09-09T08:14:58;100646.38;;;36.44;44.72
23619;BME280;18207;32.078;34.818;2022-09-09T08:17:32;100645.50;;;36.47;45.04
23619;BME280;18207;32.078;34.818;2022-09-09T08:20:03;100643.78;;;36.50;44.50
23619;BME280;18207;32.078;34.818;2022-09-09T08:22:36;100642.91;;;36.53;44.60
23619;BME280;18207;32.078;34.818;2022-09-09T08:25:07;100642.44;;;36.54;44.85
23619;BME280;18207;32.078;34.818;2022-09-09T08:27:38;100640.41;;;36.55;44.52
23619;BME280;18207;32.078;34.818;2022-09-09T08:30:10;100637.06;;;36.56;44.61
23619;BME280;18207;32.078;34.818;2022-09-09T08:32:41;100638.25;;;36.59;44.95
23619;BME280;18207;32.078;34.818;2022-09-09T08:35:14;100636.19;;;36.59;44.57
23619;BME280;18207;32.078;34.818;2022-09-09T08:37:48;100632.88;;;36.61;44.87
23619;BME280;18207;32.078;34.818;2022-09-09T08:40:32;100620.53;;;36.64;44.66
23619;BME280;18207;32.078;34.818;2022-09-09T08:43:07;100623.75;;;36.66;44.63
23619;BME280;18207;32.078;34.818;2022-09-09T08:45:49;100617.91;;;36.69;44.35
23619;BME280;18207;32.078;34.818;2022-09-09T08:48:42;100612.88;;;36.73;44.12
23619;BME280;18207;32.078;34.818;2022-09-09T08:51:14;100616.13;;;36.75;44.08
23619;BME280;18207;32.078;34.818;2022-09-09T08:53:49;100615.13;;;36.81;44.22
23619;BME280;18207;32.078;34.818;2022-09-09T08:56:28;100609.28;;;36.85;44.34
23619;BME280;18207;32.078;34.818;2022-09-09T08:59:03;100608.81;;;36.86;44.61
23619;BME280;18207;32.078;34.818;2022-09-09T09:01:57;100608.41;;;36.88;44.16
23619;BME280;18207;32.078;34.818;2022-09-09T09:04:49;100604.72;;;36.87;43.88
23619;BME280;18207;32.078;34.818;2022-09-09T09:07:35;100606.34;;;36.88;44.40
23619;BME280;18207;32.078;34.818;2022-09-09T09:10:41;100608.94;;;36.83;43.91
23619;BME280;18207;32.078;34.818;2022-09-09T09:13:19;100604.91;;;36.80;44.02
23619;BME280;18207;32.078;34.818;2022-09-09T09:15:56;100608.59;;;36.81;43.84
23619;BME280;18207;32.078;34.818;2022-09-09T09:18:29;100599.19;;;36.80;43.64
23619;BME280;18207;32.078;34.818;2022-09-09T09:21:07;100595.06;;;36.81;43.80
23619;BME280;18207;32.078;34.818;2022-09-09T09:23:47;100593.34;;;36.84;43.93
23619;BME280;18207;32.078;34.818;2022-09-09T09:26:23;100596.94;;;36.88;43.68
23619;BME280;18207;32.078;34.818;2022-09-09T09:28:58;100600.53;;;36.92;43.47
23619;BME280;18207;32.078;34.818;2022-09-09T09:31:31;100590.25;;;36.94;43.91
23619;BME280;18207;32.078;34.818;2022-09-09T09:34:01;100595.50;;;36.96;43.43
23619;BME280;18207;32.078;34.818;2022-09-09T09:36:41;100599.16;;;36.96;44.03
23619;BME280;18207;32.078;34.818;2022-09-09T09:39:25;100584.50;;;36.94;43.89
23619;BME280;18207;32.078;34.818;2022-09-09T09:42:18;100582.44;;;36.95;43.78
23619;BME280;18207;32.078;34.818;2022-09-09T09:44:50;100581.19;;;36.96;43.75
23619;BME280;18207;32.078;34.818;2022-09-09T09:47:22;100575.91;;;36.94;43.65
23619;BME280;18207;32.078;34.818;2022-09-09T09:49:54;100579.66;;;36.91;43.40
23619;BME280;18207;32.078;34.818;2022-09-09T09:52:28;100575.66;;;36.89;43.61
23619;BME280;18207;32.078;34.818;2022-09-09T09:55:03;100580.47;;;36.92;43.64
23619;BME280;18207;32.078;34.818;2022-09-09T09:57:37;100584.94;;;36.93;43.54
23619;BME280;18207;32.078;34.818;2022-09-09T10:00:15;100573.47;;;36.93;43.20
23619;BME280;18207;32.078;34.818;2022-09-09T10:02:47;100567.41;;;36.91;43.13
23619;BME280;18207;32.078;34.818;2022-09-09T10:05:22;100567.41;;;36.91;42.98
23619;BME280;18207;32.078;34.818;2022-09-09T10:08:04;100559.13;;;36.93;42.86
23619;BME280;18207;32.078;34.818;2022-09-09T10:10:54;100559.97;;;36.93;43.34
23619;BME280;18207;32.078;34.818;2022-09-09T10:13:36;100557.88;;;36.94;42.77
23619;BME280;18207;32.078;34.818;2022-09-09T10:16:42;100557.78;;;36.97;42.63
23619;BME280;18207;32.078;34.818;2022-09-09T10:19:30;100554.91;;;36.97;42.96
23619;BME280;18207;32.078;34.818;2022-09-09T10:22:16;100543.44;;;36.97;42.21
23619;BME280;18207;32.078;34.818;2022-09-09T10:25:25;100544.03;;;36.92;42.66
23619;BME280;18207;32.078;34.818;2022-09-09T10:28:51;100548.59;;;36.90;42.62
23619;BME280;18207;32.078;34.818;2022-09-09T10:31:38;100548.22;;;36.88;42.30
23619;BME280;18207;32.078;34.818;2022-09-09T10:34:26;100546.16;;;36.88;42.21
23619;BME280;18207;32.078;34.818;2022-09-09T10:37:14;100540.00;;;36.90;41.81
23619;BME280;18207;32.078;34.818;2022-09-09T10:40:04;100538.75;;;36.91;42.46
23619;BME280;18207;32.078;34.818;2022-09-09T10:42:43;100541.16;;;36.92;42.26
23619;BME280;18207;32.078;34.818;2022-09-09T10:45:25;100534.53;;;36.95;41.89
23619;BME280;18207;32.078;34.818;2022-09-09T10:48:24;100533.59;;;36.98;41.75
23619;BME280;18207;32.078;34.818;2022-09-09T10:51:18;100533.16;;;37.00;41.46
23619;BME280;18207;32.078;34.818;2022-09-09T10:54:17;100528.56;;;37.02;41.83
23619;BME280;18207;32.078;34.818;2022-09-09T10:56:59;100530.97;;;37.04;41.92
23619;BME280;18207;32.078;34.818;2022-09-09T10:59:40;100527.22;;;37.07;41.17
23619;BME280;18207;32.078;34.818;2022-09-09T11:02:22;100526.75;;;37.08;41.36
23619;BME280;18207;32.078;34.818;2022-09-09T11:05:03;100525.97;;;37.08;41.17
23619;BME280;18207;32.078;34.818;2022-09-09T11:07:41;100526.31;;;37.10;41.49
23619;BME280;18207;32.078;34.818;2022-09-09T11:10:24;100526.75;;;37.08;40.89
23619;BME280;18207;32.078;34.818;2022-09-09T11:13:03;100525.13;;;37.07;41.38
23619;BME280;18207;32.078;34.818;2022-09-09T11:15:42;100525.59;;;37.06;41.02
23619;BME280;18207;32.078;34.818;2022-09-09T11:18:21;100530.19;;;37.03;41.15
23619;BME280;18207;32.078;34.818;2022-09-09T11:20:58;100522.84;;;37.02;41.03
23619;BME280;18207;32.078;34.818;2022-09-09T11:23:40;100522.03;;;37.02;41.09
23619;BME280;18207;32.078;34.818;2022-09-09T11:26:20;100517.09;;;37.02;40.74
23619;BME280;18207;32.078;34.818;2022-09-09T11:32:56;100521.78;;;36.96;40.77
23619;BME280;18207;32.078;34.818;2022-09-09T11:35:45;100505.94;;;36.92;40.85
23619;BME280;18207;32.078;34.818;2022-09-09T11:38:25;100513.38;;;36.89;40.83
23619;BME280;18207;32.078;34.818;2022-09-09T11:40:58;100514.63;;;36.88;40.77
23619;BME280;18207;32.078;34.818;2022-09-09T11:43:38;100502.34;;;36.88;40.41
23619;BME280;18207;32.078;34.818;2022-09-09T11:46:11;100506.03;;;36.88;40.33
23619;BME280;18207;32.078;34.818;2022-09-09T11:48:45;100507.66;;;36.89;40.28
23619;BME280;18207;32.078;34.818;2022-09-09T11:51:31;100510.53;;;36.89;40.43
23619;BME280;18207;32.078;34.818;2022-09-09T11:54:31;100506.88;;;36.89;40.55
23619;BME280;18207;32.078;34.818;2022-09-09T11:57:24;100501.13;;;36.89;40.47
23619;BME280;18207;32.078;34.818;2022-09-09T11:59:58;100503.19;;;36.88;40.39
23619;BME280;18207;32.078;34.818;2022-09-09T12:02:29;100506.41;;;36.90;40.50
23619;BME280;18207;32.078;34.818;2022-09-09T12:05:05;100510.41;;;36.93;40.40
23619;BME280;18207;32.078;34.818;2022-09-09T12:07:46;100502.28;;;36.91;39.98
23619;BME280;18207;32.078;34.818;2022-09-09T12:10:26;100498.66;;;36.87;39.48
23619;BME280;18207;32.078;34.818;2022-09-09T12:13:14;100498.34;;;36.85;40.06
23619;BME280;18207;32.078;34.818;2022-09-09T12:15:50;100491.78;;;36.85;40.13
23619;BME280;18207;32.078;34.818;2022-09-09T12:18:24;100498.34;;;36.85;39.90
23619;BME280;18207;32.078;34.818;2022-09-09T12:21:04;100490.53;;;36.86;39.49
23619;BME280;18207;32.078;34.818;2022-09-09T12:23:55;100487.31;;;36.84;39.82
23619;BME280;18207;32.078;34.818;2022-09-09T12:26:40;100484.91;;;36.82;39.78
23619;BME280;18207;32.078;34.818;2022-09-09T12:29:25;100494.31;;;36.83;39.66
23619;BME280;18207;32.078;34.818;2022-09-09T12:32:06;100501.28;;;36.82;39.84
23619;BME280;18207;32.078;34.818;2022-09-09T12:34:40;100496.84;;;36.81;39.49
23619;BME280;18207;32.078;34.818;2022-09-09T12:37:24;100493.63;;;36.79;39.64
23619;BME280;18207;32.078;34.818;2022-09-09T12:40:01;100503.56;;;36.75;39.82
23619;BME280;18207;32.078;34.818;2022-09-09T12:42:32;100498.38;;;36.70;39.76
23619;BME280;18207;32.078;34.818;2022-09-09T12:45:18;100491.97;;;36.66;39.56
23619;BME280;18207;32.078;34.818;2022-09-09T12:47:55;100496.50;;;36.63;39.15
23619;BME280;18207;32.078;34.818;2022-09-09T12:50:32;100506.03;;;36.60;39.64
23619;BME280;18207;32.078;34.818;2022-09-09T12:53:08;100504.53;;;36.56;39.66
23619;BME280;18207;32.078;34.818;2022-09-09T12:55:55;100510.78;;;36.51;39.55
23619;BME280;18207;32.078;34.818;2022-09-09T12:58:27;100507.66;;;36.45;39.45
23619;BME280;18207;32.078;34.818;2022-09-09T13:01:02;100514.69;;;36.41;39.70
23619;BME280;18207;32.078;34.818;2022-09-09T13:03:42;100512.72;;;36.38;39.73
23619;BME280;18207;32.078;34.818;2022-09-09T13:06:20;100511.16;;;36.37;39.85
23619;BME280;18207;32.078;34.818;2022-09-09T13:08:58;100500.13;;;36.35;39.51
23619;BME280;18207;32.078;34.818;2022-09-09T13:11:38;100504.69;;;36.33;39.63
23619;BME280;18207;32.078;34.818;2022-09-09T13:14:16;100505.69;;;36.26;39.56
23619;BME280;18207;32.078;34.818;2022-09-09T13:16:57;100499.59;;;36.24;39.51
23619;BME280;18207;32.078;34.818;2022-09-09T13:19:33;100502.91;;;36.23;39.92
23619;BME280;18207;32.078;34.818;2022-09-09T13:22:13;100497.66;;;36.21;39.31
23619;BME280;18207;32.078;34.818;2022-09-09T13:24:44;100500.94;;;36.20;39.30
23619;BME280;18207;32.078;34.818;2022-09-09T13:27:29;100506.66;;;36.20;39.57
23619;BME280;18207;32.078;34.818;2022-09-09T13:30:00;100512.03;;;36.18;39.89
23619;BME280;18207;32.078;34.818;2022-09-09T13:32:31;100496.13;;;36.17;39.99
23619;BME280;18207;32.078;34.818;2022-09-09T13:35:02;100501.03;;;36.16;39.51
23619;BME280;18207;32.078;34.818;2022-09-09T13:37:37;100493.69;;;36.15;39.95